sensor_id;sensor_type;location;lat;lon;timestamp;P1;durP1;ratioP1;P2;durP2;ratioP2
58460;SDS011;45558;37.752;-97.822;2022-10-16T00:00:43;4.72;;;1.20;;
58460;SDS011;45558;37.752;-97.822;2022-10-16T00:03:09;8.65;;;1.52;;
58460;SDS011;45558;37.752;-97.822;2022-10-16T00:05:37;8.10;;;0.80;;
58460;SDS011;45558;37.752;-97.822;2022-10-16T00:08:04;4.43;;;1.15;;
58460;SDS011;45558;37.752;-97.822;2022-10-16T00:10:30;2.30;;;0.70;;
58460;SDS011;45558;37.752;-97.822;2022-10-16T00:12:55;4.10;;;0.90;;
58460;SDS011;45558;37.752;-97.822;2022-10-16T00:15:20;3.35;;;0.77;;
58460;SDS011;45558;37.752;-97.822;2022-10-16T00:17:46;4.10;;;0.77;;
58460;SDS011;45558;37.752;-97.822;2022-10-16T00:20:13;9.63;;;0.75;;
58460;SDS011;45558;37.752;-97.822;2022-10-16T00:22:38;1.55;;;0.65;;
58460;SDS011;45558;37.752;-97.822;2022-10-16T00:25:03;3.67;;;0.60;;
58460;SDS011;45558;37.752;-97.822;2022-10-16T00:27:29;6.15;;;0.80;;
58460;SDS011;45558;37.752;-97.822;2022-10-16T00:29:54;9.32;;;1.80;;
58460;SDS011;45558;37.752;-97.822;2022-10-16T00:32:20;4.15;;;0.77;;
58460;SDS011;45558;37.752;-97.822;2022-10-16T00:34:46;4.63;;;0.73;;
58460;SDS011;45558;37.752;-97.822;2022-10-16T00:37:12;6.18;;;1.17;;
58460;SDS011;45558;37.752;-97.822;2022-10-16T00:39:37;7.35;;;0.70;;
58460;SDS011;45558;37.752;-97.822;2022-10-16T00:42:03;5.22;;;0.60;;
58460;SDS011;45558;37.752;-97.822;2022-10-16T00:47:18;6.82;;;0.65;;
58460;SDS011;45558;37.752;-97.822;2022-10-16T00:49:47;2.80;;;0.50;;
58460;SDS011;45558;37.752;-97.822;2022-10-16T00:52:15;10.85;;;0.88;;
58460;SDS011;45558;37.752;-97.822;2022-10-16T00:54:41;6.82;;;1.30;;
58460;SDS011;45558;37.752;-97.822;2022-10-16T00:57:07;3.95;;;0.70;;
58460;SDS011;45558;37.752;-97.822;2022-10-16T00:59:34;4.72;;;0.50;;
58460;SDS011;45558;37.752;-97.822;2022-10-16T01:02:02;7.68;;;0.70;;
58460;SDS011;45558;37.752;-97.822;2022-10-16T01:04:29;6.28;;;0.60;;
58460;SDS011;45558;37.752;-97.822;2022-10-16T01:09:46;1.63;;;0.40;;
58460;SDS011;45558;37.752;-97.822;2022-10-16T01:14:47;5.28;;;0.95;;
58460;SDS011;45558;37.752;-97.822;2022-10-16T01:17:18;3.53;;;0.60;;
58460;SDS011;45558;37.752;-97.822;2022-10-16T01:20:24;3.58;;;0.65;;
58460;SDS011;45558;37.752;-97.822;2022-10-16T01:28:37;3.20;;;0.55;;
58460;SDS011;45558;37.752;-97.822;2022-10-16T01:31:07;1.75;;;0.22;;
58460;SDS011;45558;37.752;-97.822;2022-10-16T01:33:42;1.20;;;0.32;;
58460;SDS011;45558;37.752;-97.822;2022-10-16T01:36:15;4.32;;;0.73;;
58460;SDS011;45558;37.752;-97.822;2022-10-16T01:38:44;5.63;;;0.40;;
58460;SDS011;45558;37.752;-97.822;2022-10-16T01:41:17;3.33;;;0.55;;
58460;SDS011;45558;37.752;-97.822;2022-10-16T01:44:01;4.05;;;0.43;;
58460;SDS011;45558;37.752;-97.822;2022-10-16T01:46:30;3.70;;;0.50;;
58460;SDS011;45558;37.752;-97.822;2022-10-16T01:48:56;4.38;;;0.90;;
58460;SDS011;45558;37.752;-97.822;2022-10-16T01:51:21;3.30;;;0.50;;
58460;SDS011;45558;37.752;-97.822;2022-10-16T01:53:52;2.00;;;0.30;;
58460;SDS011;45558;37.752;-97.822;2022-10-16T01:56:20;2.53;;;0.73;;
58460;SDS011;45558;37.752;-97.822;2022-10-16T01:58:56;2.50;;;0.40;;
58460;SDS011;45558;37.752;-97.822;2022-10-16T02:01:23;2.17;;;0.30;;
58460;SDS011;45558;37.752;-97.822;2022-10-16T02:03:51;2.10;;;0.30;;
58460;SDS011;45558;37.752;-97.822;2022-10-16T02:06:18;4.78;;;1.05;;
58460;SDS011;45558;37.752;-97.822;2022-10-16T02:08:43;3.22;;;0.30;;
58460;SDS011;45558;37.752;-97.822;2022-10-16T02:11:09;3.78;;;0.50;;
58460;SDS011;45558;37.752;-97.822;2022-10-16T02:13:55;5.10;;;0.50;;
58460;SDS011;45558;37.752;-97.822;2022-10-16T02:16:32;4.53;;;0.40;;
58460;SDS011;45558;37.752;-97.822;2022-10-16T02:19:04;7.93;;;0.85;;
58460;SDS011;45558;37.752;-97.822;2022-10-16T02:29:55;2.67;;;0.30;;
58460;SDS011;45558;37.752;-97.822;2022-10-16T02:32:32;6.20;;;0.68;;
58460;SDS011;45558;37.752;-97.822;2022-10-16T02:34:58;3.80;;;0.75;;
58460;SDS011;45558;37.752;-97.822;2022-10-16T02:37:26;1.42;;;0.22;;
58460;SDS011;45558;37.752;-97.822;2022-10-16T02:39:52;2.58;;;0.38;;
58460;SDS011;45558;37.752;-97.822;2022-10-16T02:42:18;0.60;;;0.30;;
58460;SDS011;45558;37.752;-97.822;2022-10-16T02:44:44;1.63;;;0.20;;
58460;SDS011;45558;37.752;-97.822;2022-10-16T02:47:10;6.40;;;0.43;;
58460;SDS011;45558;37.752;-97.822;2022-10-16T02:49:36;4.00;;;0.30;;
58460;SDS011;45558;37.752;-97.822;2022-10-16T02:52:03;2.63;;;0.43;;
58460;SDS011;45558;37.752;-97.822;2022-10-16T02:54:29;1.98;;;0.40;;
58460;SDS011;45558;37.752;-97.822;2022-10-16T02:56:54;1.63;;;0.30;;
58460;SDS011;45558;37.752;-97.822;2022-10-16T02:59:19;5.60;;;0.38;;
58460;SDS011;45558;37.752;-97.822;2022-10-16T03:01:45;3.53;;;0.28;;
58460;SDS011;45558;37.752;-97.822;2022-10-16T03:04:10;2.78;;;0.30;;
58460;SDS011;45558;37.752;-97.822;2022-10-16T03:06:36;2.80;;;0.30;;
58460;SDS011;45558;37.752;-97.822;2022-10-16T03:09:01;2.47;;;0.40;;
58460;SDS011;45558;37.752;-97.822;2022-10-16T03:11:27;5.95;;;0.45;;
58460;SDS011;45558;37.752;-97.822;2022-10-16T03:13:53;3.28;;;0.30;;
58460;SDS011;45558;37.752;-97.822;2022-10-16T03:16:19;9.15;;;0.55;;
58460;SDS011;45558;37.752;-97.822;2022-10-16T03:18:47;1.95;;;0.30;;
58460;SDS011;45558;37.752;-97.822;2022-10-16T03:21:14;4.05;;;0.17;;
58460;SDS011;45558;37.752;-97.822;2022-10-16T03:23:39;4.07;;;0.30;;
58460;SDS011;45558;37.752;-97.822;2022-10-16T03:26:05;4.22;;;0.28;;
58460;SDS011;45558;37.752;-97.822;2022-10-16T03:28:30;4.30;;;0.30;;
58460;SDS011;45558;37.752;-97.822;2022-10-16T03:30:55;4.68;;;0.40;;
58460;SDS011;45558;37.752;-97.822;2022-10-16T03:33:21;5.70;;;0.85;;
58460;SDS011;45558;37.752;-97.822;2022-10-16T03:35:50;5.82;;;0.50;;
58460;SDS011;45558;37.752;-97.822;2022-10-16T03:38:18;4.15;;;0.88;;
58460;SDS011;45558;37.752;-97.822;2022-10-16T03:40:43;1.70;;;0.30;;
58460;SDS011;45558;37.752;-97.822;2022-10-16T03:43:08;2.97;;;0.30;;
58460;SDS011;45558;37.752;-97.822;2022-10-16T03:45:34;2.75;;;0.40;;
58460;SDS011;45558;37.752;-97.822;2022-10-16T03:47:59;2.10;;;0.20;;
58460;SDS011;45558;37.752;-97.822;2022-10-16T03:50:24;3.50;;;0.20;;
58460;SDS011;45558;37.752;-97.822;2022-10-16T03:52:50;1.95;;;0.35;;
58460;SDS011;45558;37.752;-97.822;2022-10-16T03:55:15;4.85;;;0.30;;
58460;SDS011;45558;37.752;-97.822;2022-10-16T03:57:41;2.67;;;0.28;;
58460;SDS011;45558;37.752;-97.822;2022-10-16T04:00:06;4.15;;;0.28;;
58460;SDS011;45558;37.752;-97.822;2022-10-16T04:02:32;2.75;;;0.30;;
58460;SDS011;45558;37.752;-97.822;2022-10-16T04:04:57;7.95;;;0.32;;
58460;SDS011;45558;37.752;-97.822;2022-10-16T04:07:23;6.45;;;0.45;;
58460;SDS011;45558;37.752;-97.822;2022-10-16T04:09:48;7.28;;;0.40;;
58460;SDS011;45558;37.752;-97.822;2022-10-16T04:12:17;2.55;;;0.93;;
58460;SDS011;45558;37.752;-97.822;2022-10-16T04:14:42;2.40;;;0.30;;
58460;SDS011;45558;37.752;-97.822;2022-10-16T04:17:08;6.50;;;0.38;;
58460;SDS011;45558;37.752;-97.822;2022-10-16T04:19:33;2.10;;;0.45;;
58460;SDS011;45558;37.752;-97.822;2022-10-16T04:21:59;3.25;;;0.25;;
58460;SDS011;45558;37.752;-97.822;2022-10-16T04:24:24;2.15;;;0.40;;
58460;SDS011;45558;37.752;-97.822;2022-10-16T04:26:49;1.45;;;0.20;;
58460;SDS011;45558;37.752;-97.822;2022-10-16T04:29:15;2.33;;;0.30;;
58460;SDS011;45558;37.752;-97.822;2022-10-16T04:31:40;5.38;;;0.30;;
58460;SDS011;45558;37.752;-97.822;2022-10-16T04:34:06;3.60;;;0.32;;
58460;SDS011;45558;37.752;-97.822;2022-10-16T04:36:31;1.52;;;0.60;;
58460;SDS011;45558;37.752;-97.822;2022-10-16T04:38:56;3.08;;;0.93;;
58460;SDS011;45558;37.752;-97.822;2022-10-16T04:41:22;5.78;;;0.38;;
58460;SDS011;45558;37.752;-97.822;2022-10-16T04:43:47;2.70;;;0.40;;
58460;SDS011;45558;37.752;-97.822;2022-10-16T04:46:12;7.75;;;0.40;;
58460;SDS011;45558;37.752;-97.822;2022-10-16T04:48:38;6.75;;;0.40;;
58460;SDS011;45558;37.752;-97.822;2022-10-16T04:51:03;3.13;;;0.45;;
58460;SDS011;45558;37.752;-97.822;2022-10-16T04:53:30;4.30;;;0.43;;
58460;SDS011;45558;37.752;-97.822;2022-10-16T04:55:56;3.72;;;0.40;;
58460;SDS011;45558;37.752;-97.822;2022-10-16T04:58:22;1.05;;;0.20;;
58460;SDS011;45558;37.752;-97.822;2022-10-16T05:00:47;3.70;;;0.93;;
58460;SDS011;45558;37.752;-97.822;2022-10-16T05:03:14;10.70;;;0.73;;
58460;SDS011;45558;37.752;-97.822;2022-10-16T05:05:43;5.47;;;0.50;;
58460;SDS011;45558;37.752;-97.822;2022-10-16T05:08:10;1.73;;;0.32;;
58460;SDS011;45558;37.752;-97.822;2022-10-16T05:10:36;2.65;;;1.17;;
58460;SDS011;45558;37.752;-97.822;2022-10-16T05:13:01;5.32;;;0.50;;
58460;SDS011;45558;37.752;-97.822;2022-10-16T05:15:26;1.65;;;0.40;;
58460;SDS011;45558;37.752;-97.822;2022-10-16T05:17:55;1.73;;;0.40;;
58460;SDS011;45558;37.752;-97.822;2022-10-16T05:20:21;4.55;;;0.30;;
58460;SDS011;45558;37.752;-97.822;2022-10-16T05:22:47;5.55;;;0.80;;
58460;SDS011;45558;37.752;-97.822;2022-10-16T05:25:13;8.05;;;0.60;;
58460;SDS011;45558;37.752;-97.822;2022-10-16T05:27:38;5.55;;;0.32;;
58460;SDS011;45558;37.752;-97.822;2022-10-16T05:30:06;1.60;;;0.50;;
58460;SDS011;45558;37.752;-97.822;2022-10-16T05:32:32;1.70;;;0.20;;
58460;SDS011;45558;37.752;-97.822;2022-10-16T05:34:58;4.47;;;0.50;;
58460;SDS011;45558;37.752;-97.822;2022-10-16T05:37:25;2.10;;;0.35;;
58460;SDS011;45558;37.752;-97.822;2022-10-16T05:39:53;2.00;;;0.30;;
58460;SDS011;45558;37.752;-97.822;2022-10-16T05:42:19;1.42;;;0.40;;
58460;SDS011;45558;37.752;-97.822;2022-10-16T05:44:45;8.15;;;1.00;;
58460;SDS011;45558;37.752;-97.822;2022-10-16T05:47:12;5.65;;;0.68;;
58460;SDS011;45558;37.752;-97.822;2022-10-16T05:49:38;5.75;;;1.25;;
58460;SDS011;45558;37.752;-97.822;2022-10-16T05:52:06;3.20;;;1.00;;
58460;SDS011;45558;37.752;-97.822;2022-10-16T05:54:31;4.63;;;1.17;;
58460;SDS011;45558;37.752;-97.822;2022-10-16T05:56:57;9.13;;;1.25;;
58460;SDS011;45558;37.752;-97.822;2022-10-16T05:59:22;2.53;;;0.30;;
58460;SDS011;45558;37.752;-97.822;2022-10-16T06:01:47;6.35;;;1.00;;
58460;SDS011;45558;37.752;-97.822;2022-10-16T06:04:13;4.75;;;0.75;;
58460;SDS011;45558;37.752;-97.822;2022-10-16T06:06:38;3.55;;;0.75;;
58460;SDS011;45558;37.752;-97.822;2022-10-16T06:09:04;16.70;;;7.93;;
58460;SDS011;45558;37.752;-97.822;2022-10-16T06:11:30;5.63;;;0.40;;
58460;SDS011;45558;37.752;-97.822;2022-10-16T06:13:57;0.95;;;0.25;;
58460;SDS011;45558;37.752;-97.822;2022-10-16T06:16:26;2.57;;;0.30;;
58460;SDS011;45558;37.752;-97.822;2022-10-16T06:18:53;3.38;;;1.10;;
58460;SDS011;45558;37.752;-97.822;2022-10-16T06:21:20;1.35;;;0.40;;
58460;SDS011;45558;37.752;-97.822;2022-10-16T06:23:47;6.70;;;0.50;;
58460;SDS011;45558;37.752;-97.822;2022-10-16T06:26:13;3.95;;;0.60;;
58460;SDS011;45558;37.752;-97.822;2022-10-16T06:28:41;5.70;;;0.70;;
58460;SDS011;45558;37.752;-97.822;2022-10-16T06:31:07;1.80;;;1.65;;
58460;SDS011;45558;37.752;-97.822;2022-10-16T06:33:33;5.68;;;1.05;;
58460;SDS011;45558;37.752;-97.822;2022-10-16T06:36:03;4.97;;;1.40;;
58460;SDS011;45558;37.752;-97.822;2022-10-16T06:38:37;5.57;;;0.90;;
58460;SDS011;45558;37.752;-97.822;2022-10-16T06:41:03;9.82;;;0.77;;
58460;SDS011;45558;37.752;-97.822;2022-10-16T06:43:29;7.78;;;1.98;;
58460;SDS011;45558;37.752;-97.822;2022-10-16T06:45:57;2.42;;;0.95;;
58460;SDS011;45558;37.752;-97.822;2022-10-16T06:48:23;3.58;;;1.05;;
58460;SDS011;45558;37.752;-97.822;2022-10-16T06:51:23;7.82;;;1.60;;
58460;SDS011;45558;37.752;-97.822;2022-10-16T06:53:45;7.00;;;1.13;;
58460;SDS011;45558;37.752;-97.822;2022-10-16T06:56:21;4.85;;;1.10;;
58460;SDS011;45558;37.752;-97.822;2022-10-16T06:58:48;4.45;;;0.88;;
58460;SDS011;45558;37.752;-97.822;2022-10-16T07:01:15;4.47;;;1.75;;
58460;SDS011;45558;37.752;-97.822;2022-10-16T07:03:44;2.38;;;0.55;;
58460;SDS011;45558;37.752;-97.822;2022-10-16T07:06:11;2.15;;;0.45;;
58460;SDS011;45558;37.752;-97.822;2022-10-16T07:08:39;3.17;;;0.90;;
58460;SDS011;45558;37.752;-97.822;2022-10-16T07:11:06;3.53;;;0.80;;
58460;SDS011;45558;37.752;-97.822;2022-10-16T07:13:34;5.28;;;1.88;;
58460;SDS011;45558;37.752;-97.822;2022-10-16T07:18:35;2.63;;;1.08;;
58460;SDS011;45558;37.752;-97.822;2022-10-16T07:21:08;7.05;;;4.47;;
58460;SDS011;45558;37.752;-97.822;2022-10-16T07:23:35;1.58;;;0.88;;
58460;SDS011;45558;37.752;-97.822;2022-10-16T07:26:01;3.67;;;1.13;;
58460;SDS011;45558;37.752;-97.822;2022-10-16T07:28:27;2.67;;;0.30;;
58460;SDS011;45558;37.752;-97.822;2022-10-16T07:30:54;4.45;;;1.55;;
58460;SDS011;45558;37.752;-97.822;2022-10-16T07:33:21;5.13;;;0.50;;
58460;SDS011;45558;37.752;-97.822;2022-10-16T07:35:48;3.08;;;0.50;;
58460;SDS011;45558;37.752;-97.822;2022-10-16T07:38:16;4.30;;;0.90;;
58460;SDS011;45558;37.752;-97.822;2022-10-16T07:40:42;1.85;;;0.70;;
58460;SDS011;45558;37.752;-97.822;2022-10-16T07:43:07;3.42;;;1.13;;
58460;SDS011;45558;37.752;-97.822;2022-10-16T07:45:34;3.25;;;0.90;;
58460;SDS011;45558;37.752;-97.822;2022-10-16T07:47:59;6.18;;;1.33;;
58460;SDS011;45558;37.752;-97.822;2022-10-16T07:50:25;5.68;;;0.70;;
58460;SDS011;45558;37.752;-97.822;2022-10-16T07:52:50;6.22;;;1.40;;
58460;SDS011;45558;37.752;-97.822;2022-10-16T07:55:15;6.40;;;0.50;;
58460;SDS011;45558;37.752;-97.822;2022-10-16T07:57:41;6.78;;;1.45;;
58460;SDS011;45558;37.752;-97.822;2022-10-16T08:00:07;1.88;;;0.80;;
58460;SDS011;45558;37.752;-97.822;2022-10-16T08:02:38;4.03;;;0.90;;
58460;SDS011;45558;37.752;-97.822;2022-10-16T08:05:04;5.32;;;1.30;;
58460;SDS011;45558;37.752;-97.822;2022-10-16T08:07:31;4.53;;;1.00;;
58460;SDS011;45558;37.752;-97.822;2022-10-16T08:09:56;7.90;;;0.60;;
58460;SDS011;45558;37.752;-97.822;2022-10-16T08:12:23;10.73;;;3.00;;
58460;SDS011;45558;37.752;-97.822;2022-10-16T08:14:48;3.45;;;1.00;;
58460;SDS011;45558;37.752;-97.822;2022-10-16T08:17:15;7.57;;;0.80;;
58460;SDS011;45558;37.752;-97.822;2022-10-16T08:19:43;2.40;;;0.80;;
58460;SDS011;45558;37.752;-97.822;2022-10-16T08:22:12;5.45;;;1.02;;
58460;SDS011;45558;37.752;-97.822;2022-10-16T08:24:38;3.97;;;0.50;;
58460;SDS011;45558;37.752;-97.822;2022-10-16T08:27:04;3.95;;;1.00;;
58460;SDS011;45558;37.752;-97.822;2022-10-16T08:29:29;1.55;;;0.52;;
58460;SDS011;45558;37.752;-97.822;2022-10-16T08:31:55;4.72;;;0.60;;
58460;SDS011;45558;37.752;-97.822;2022-10-16T08:34:20;8.70;;;0.60;;
58460;SDS011;45558;37.752;-97.822;2022-10-16T08:36:45;12.27;;;3.08;;
58460;SDS011;45558;37.752;-97.822;2022-10-16T08:39:11;2.97;;;1.20;;
58460;SDS011;45558;37.752;-97.822;2022-10-16T08:41:49;6.85;;;1.42;;
58460;SDS011;45558;37.752;-97.822;2022-10-16T08:49:31;6.88;;;1.52;;
58460;SDS011;45558;37.752;-97.822;2022-10-16T08:51:56;9.65;;;2.63;;
58460;SDS011;45558;37.752;-97.822;2022-10-16T08:54:30;14.55;;;1.80;;
58460;SDS011;45558;37.752;-97.822;2022-10-16T08:57:01;15.07;;;1.33;;
58460;SDS011;45558;37.752;-97.822;2022-10-16T08:59:34;4.32;;;1.02;;
58460;SDS011;45558;37.752;-97.822;2022-10-16T09:01:59;2.65;;;1.65;;
58460;SDS011;45558;37.752;-97.822;2022-10-16T09:09:41;8.93;;;1.45;;
58460;SDS011;45558;37.752;-97.822;2022-10-16T09:14:47;9.93;;;1.95;;
58460;SDS011;45558;37.752;-97.822;2022-10-16T09:19:57;11.30;;;2.65;;
58460;SDS011;45558;37.752;-97.822;2022-10-16T09:22:43;10.68;;;5.65;;
58460;SDS011;45558;37.752;-97.822;2022-10-16T09:25:16;14.13;;;3.08;;
58460;SDS011;45558;37.752;-97.822;2022-10-16T09:27:44;12.93;;;3.83;;
58460;SDS011;45558;37.752;-97.822;2022-10-16T09:30:12;7.97;;;3.42;;
58460;SDS011;45558;37.752;-97.822;2022-10-16T09:35:14;4.72;;;0.70;;
58460;SDS011;45558;37.752;-97.822;2022-10-16T09:37:42;8.90;;;1.63;;
58460;SDS011;45558;37.752;-97.822;2022-10-16T09:40:12;8.52;;;1.42;;
58460;SDS011;45558;37.752;-97.822;2022-10-16T09:42:49;5.60;;;1.42;;
58460;SDS011;45558;37.752;-97.822;2022-10-16T09:45:23;10.88;;;1.05;;
58460;SDS011;45558;37.752;-97.822;2022-10-16T09:47:49;4.10;;;0.85;;
58460;SDS011;45558;37.752;-97.822;2022-10-16T09:50:22;4.45;;;1.17;;
58460;SDS011;45558;37.752;-97.822;2022-10-16T09:52:52;8.10;;;2.75;;
58460;SDS011;45558;37.752;-97.822;2022-10-16T09:55:29;4.60;;;1.17;;
58460;SDS011;45558;37.752;-97.822;2022-10-16T09:57:56;2.65;;;1.17;;
58460;SDS011;45558;37.752;-97.822;2022-10-16T10:00:23;5.32;;;0.98;;
58460;SDS011;45558;37.752;-97.822;2022-10-16T10:02:49;2.80;;;0.77;;
58460;SDS011;45558;37.752;-97.822;2022-10-16T10:05:22;8.73;;;0.70;;
58460;SDS011;45558;37.752;-97.822;2022-10-16T10:07:57;2.75;;;0.50;;
58460;SDS011;45558;37.752;-97.822;2022-10-16T10:10:30;6.35;;;0.73;;
58460;SDS011;45558;37.752;-97.822;2022-10-16T10:12:57;7.28;;;2.38;;
58460;SDS011;45558;37.752;-97.822;2022-10-16T10:15:24;9.60;;;1.58;;
58460;SDS011;45558;37.752;-97.822;2022-10-16T10:17:54;2.55;;;0.80;;
58460;SDS011;45558;37.752;-97.822;2022-10-16T10:23:01;8.32;;;1.95;;
58460;SDS011;45558;37.752;-97.822;2022-10-16T10:25:43;5.55;;;1.55;;
58460;SDS011;45558;37.752;-97.822;2022-10-16T10:33:36;4.93;;;1.00;;
58460;SDS011;45558;37.752;-97.822;2022-10-16T10:43:52;5.45;;;1.38;;
58460;SDS011;45558;37.752;-97.822;2022-10-16T10:46:30;3.85;;;0.90;;
58460;SDS011;45558;37.752;-97.822;2022-10-16T10:52:26;30.25;;;9.90;;
58460;SDS011;45558;37.752;-97.822;2022-10-16T10:54:52;14.73;;;6.07;;
58460;SDS011;45558;37.752;-97.822;2022-10-16T11:00:37;18.50;;;5.82;;
58460;SDS011;45558;37.752;-97.822;2022-10-16T11:05:43;13.50;;;4.43;;
58460;SDS011;45558;37.752;-97.822;2022-10-16T11:10:54;5.70;;;2.07;;
58460;SDS011;45558;37.752;-97.822;2022-10-16T11:16:07;8.50;;;2.58;;
58460;SDS011;45558;37.752;-97.822;2022-10-16T11:21:12;8.27;;;2.50;;
58460;SDS011;45558;37.752;-97.822;2022-10-16T11:26:19;12.43;;;6.80;;
58460;SDS011;45558;37.752;-97.822;2022-10-16T11:28:54;11.73;;;7.13;;
58460;SDS011;45558;37.752;-97.822;2022-10-16T11:31:25;9.52;;;2.00;;
58460;SDS011;45558;37.752;-97.822;2022-10-16T11:33:59;14.98;;;7.68;;
58460;SDS011;45558;37.752;-97.822;2022-10-16T11:36:37;14.70;;;4.78;;
58460;SDS011;45558;37.752;-97.822;2022-10-16T11:41:53;12.73;;;5.13;;
58460;SDS011;45558;37.752;-97.822;2022-10-16T11:49:53;23.83;;;8.60;;
58460;SDS011;45558;37.752;-97.822;2022-10-16T11:52:40;12.95;;;6.00;;
58460;SDS011;45558;37.752;-97.822;2022-10-16T11:57:41;9.20;;;4.00;;
58460;SDS011;45558;37.752;-97.822;2022-10-16T12:00:23;14.47;;;4.37;;
58460;SDS011;45558;37.752;-97.822;2022-10-16T12:08:44;13.60;;;5.72;;
58460;SDS011;45558;37.752;-97.822;2022-10-16T12:11:22;15.35;;;5.38;;
58460;SDS011;45558;37.752;-97.822;2022-10-16T12:13:48;10.95;;;3.63;;
58460;SDS011;45558;37.752;-97.822;2022-10-16T12:18:43;12.10;;;5.90;;
58460;SDS011;45558;37.752;-97.822;2022-10-16T12:21:09;16.40;;;7.15;;
58460;SDS011;45558;37.752;-97.822;2022-10-16T12:23:46;10.10;;;3.00;;
58460;SDS011;45558;37.752;-97.822;2022-10-16T12:26:14;25.23;;;9.98;;
58460;SDS011;45558;37.752;-97.822;2022-10-16T12:28:51;12.10;;;3.67;;
58460;SDS011;45558;37.752;-97.822;2022-10-16T12:31:17;16.55;;;4.05;;
58460;SDS011;45558;37.752;-97.822;2022-10-16T12:33:50;12.75;;;4.85;;
58460;SDS011;45558;37.752;-97.822;2022-10-16T12:36:33;14.13;;;4.80;;
58460;SDS011;45558;37.752;-97.822;2022-10-16T12:38:59;14.60;;;5.30;;
58460;SDS011;45558;37.752;-97.822;2022-10-16T12:43:54;15.02;;;5.95;;
58460;SDS011;45558;37.752;-97.822;2022-10-16T12:46:21;16.10;;;8.00;;
58460;SDS011;45558;37.752;-97.822;2022-10-16T12:48:48;13.75;;;6.30;;
58460;SDS011;45558;37.752;-97.822;2022-10-16T13:18:54;4.53;;;1.02;;
58460;SDS011;45558;37.752;-97.822;2022-10-16T13:29:35;28.58;;;12.88;;
58460;SDS011;45558;37.752;-97.822;2022-10-16T13:32:01;55.33;;;37.63;;
58460;SDS011;45558;37.752;-97.822;2022-10-16T13:34:32;35.65;;;21.70;;
58460;SDS011;45558;37.752;-97.822;2022-10-16T13:36:58;30.70;;;19.73;;
58460;SDS011;45558;37.752;-97.822;2022-10-16T13:39:24;24.27;;;15.57;;
58460;SDS011;45558;37.752;-97.822;2022-10-16T13:42:05;30.15;;;17.38;;
58460;SDS011;45558;37.752;-97.822;2022-10-16T13:44:44;16.38;;;12.57;;
58460;SDS011;45558;37.752;-97.822;2022-10-16T13:47:30;19.02;;;10.25;;
58460;SDS011;45558;37.752;-97.822;2022-10-16T13:50:09;4.55;;;1.52;;
58460;SDS011;45558;37.752;-97.822;2022-10-16T13:52:36;9.10;;;2.42;;
58460;SDS011;45558;37.752;-97.822;2022-10-16T13:55:03;7.53;;;2.97;;
58460;SDS011;45558;37.752;-97.822;2022-10-16T13:57:30;6.40;;;1.52;;
58460;SDS011;45558;37.752;-97.822;2022-10-16T13:59:55;9.00;;;3.45;;
58460;SDS011;45558;37.752;-97.822;2022-10-16T14:02:39;2.42;;;0.75;;
58460;SDS011;45558;37.752;-97.822;2022-10-16T14:05:08;3.88;;;1.70;;
58460;SDS011;45558;37.752;-97.822;2022-10-16T14:07:34;5.55;;;1.00;;
58460;SDS011;45558;37.752;-97.822;2022-10-16T14:10:02;7.85;;;1.15;;
58460;SDS011;45558;37.752;-97.822;2022-10-16T14:12:29;8.23;;;1.00;;
58460;SDS011;45558;37.752;-97.822;2022-10-16T14:14:55;7.03;;;0.90;;
58460;SDS011;45558;37.752;-97.822;2022-10-16T14:17:23;9.73;;;1.50;;
58460;SDS011;45558;37.752;-97.822;2022-10-16T14:19:52;14.38;;;7.57;;
58460;SDS011;45558;37.752;-97.822;2022-10-16T14:22:33;11.77;;;6.82;;
58460;SDS011;45558;37.752;-97.822;2022-10-16T14:25:00;10.88;;;4.68;;
58460;SDS011;45558;37.752;-97.822;2022-10-16T14:27:28;15.73;;;6.40;;
58460;SDS011;45558;37.752;-97.822;2022-10-16T14:33:03;18.27;;;10.45;;
58460;SDS011;45558;37.752;-97.822;2022-10-16T14:35:43;36.42;;;15.48;;
58460;SDS011;45558;37.752;-97.822;2022-10-16T14:38:18;19.95;;;9.20;;
58460;SDS011;45558;37.752;-97.822;2022-10-16T14:40:46;95.03;;;51.83;;
58460;SDS011;45558;37.752;-97.822;2022-10-16T14:43:55;25.63;;;14.75;;
58460;SDS011;45558;37.752;-97.822;2022-10-16T14:46:02;13.63;;;7.30;;
58460;SDS011;45558;37.752;-97.822;2022-10-16T14:48:30;15.27;;;7.03;;
58460;SDS011;45558;37.752;-97.822;2022-10-16T14:50:56;7.50;;;2.47;;
58460;SDS011;45558;37.752;-97.822;2022-10-16T14:53:21;4.60;;;1.27;;
58460;SDS011;45558;37.752;-97.822;2022-10-16T14:55:47;10.40;;;2.20;;
58460;SDS011;45558;37.752;-97.822;2022-10-16T14:58:17;4.03;;;1.45;;
58460;SDS011;45558;37.752;-97.822;2022-10-16T15:00:47;7.28;;;1.17;;
58460;SDS011;45558;37.752;-97.822;2022-10-16T15:03:13;4.15;;;2.10;;
58460;SDS011;45558;37.752;-97.822;2022-10-16T15:05:38;14.77;;;4.05;;
58460;SDS011;45558;37.752;-97.822;2022-10-16T15:08:04;6.95;;;0.90;;
58460;SDS011;45558;37.752;-97.822;2022-10-16T15:10:29;5.50;;;1.10;;
58460;SDS011;45558;37.752;-97.822;2022-10-16T15:12:57;11.18;;;1.67;;
58460;SDS011;45558;37.752;-97.822;2022-10-16T15:17:51;5.43;;;1.73;;
58460;SDS011;45558;37.752;-97.822;2022-10-16T15:20:22;10.60;;;1.98;;
58460;SDS011;45558;37.752;-97.822;2022-10-16T15:22:48;12.25;;;2.67;;
58460;SDS011;45558;37.752;-97.822;2022-10-16T15:25:25;9.48;;;1.88;;
58460;SDS011;45558;37.752;-97.822;2022-10-16T15:27:59;8.45;;;2.17;;
58460;SDS011;45558;37.752;-97.822;2022-10-16T15:30:25;14.85;;;3.67;;
58460;SDS011;45558;37.752;-97.822;2022-10-16T15:32:53;10.07;;;2.65;;
58460;SDS011;45558;37.752;-97.822;2022-10-16T15:35:18;11.43;;;5.22;;
58460;SDS011;45558;37.752;-97.822;2022-10-16T15:37:44;15.32;;;2.75;;
58460;SDS011;45558;37.752;-97.822;2022-10-16T15:40:11;9.63;;;1.10;;
58460;SDS011;45558;37.752;-97.822;2022-10-16T15:42:37;13.95;;;4.10;;
58460;SDS011;45558;37.752;-97.822;2022-10-16T15:45:02;12.10;;;2.75;;
58460;SDS011;45558;37.752;-97.822;2022-10-16T15:47:29;11.95;;;4.55;;
58460;SDS011;45558;37.752;-97.822;2022-10-16T15:49:54;19.23;;;4.65;;
58460;SDS011;45558;37.752;-97.822;2022-10-16T15:52:20;12.18;;;3.08;;
58460;SDS011;45558;37.752;-97.822;2022-10-16T15:54:45;16.55;;;4.47;;
58460;SDS011;45558;37.752;-97.822;2022-10-16T15:57:10;13.27;;;3.90;;
58460;SDS011;45558;37.752;-97.822;2022-10-16T15:59:36;13.07;;;4.30;;
58460;SDS011;45558;37.752;-97.822;2022-10-16T16:02:01;17.45;;;5.50;;
58460;SDS011;45558;37.752;-97.822;2022-10-16T16:04:29;17.20;;;6.75;;
58460;SDS011;45558;37.752;-97.822;2022-10-16T16:06:55;13.43;;;5.47;;
58460;SDS011;45558;37.752;-97.822;2022-10-16T16:09:20;15.40;;;6.85;;
58460;SDS011;45558;37.752;-97.822;2022-10-16T16:11:48;14.65;;;5.22;;
58460;SDS011;45558;37.752;-97.822;2022-10-16T16:14:14;32.00;;;14.82;;
58460;SDS011;45558;37.752;-97.822;2022-10-16T16:16:40;23.60;;;11.73;;
58460;SDS011;45558;37.752;-97.822;2022-10-16T16:19:06;39.83;;;18.33;;
58460;SDS011;45558;37.752;-97.822;2022-10-16T16:21:35;23.38;;;8.10;;
58460;SDS011;45558;37.752;-97.822;2022-10-16T16:24:00;21.70;;;7.45;;
58460;SDS011;45558;37.752;-97.822;2022-10-16T16:26:29;23.02;;;6.15;;
58460;SDS011;45558;37.752;-97.822;2022-10-16T16:29:01;24.40;;;9.45;;
58460;SDS011;45558;37.752;-97.822;2022-10-16T16:31:28;22.40;;;5.50;;
58460;SDS011;45558;37.752;-97.822;2022-10-16T16:33:55;23.48;;;4.47;;
58460;SDS011;45558;37.752;-97.822;2022-10-16T16:36:22;23.73;;;4.57;;
58460;SDS011;45558;37.752;-97.822;2022-10-16T16:38:47;12.80;;;2.67;;
58460;SDS011;45558;37.752;-97.822;2022-10-16T16:41:13;15.85;;;2.80;;
58460;SDS011;45558;37.752;-97.822;2022-10-16T16:43:42;14.95;;;3.00;;
58460;SDS011;45558;37.752;-97.822;2022-10-16T16:46:08;11.75;;;3.22;;